Terminal Aerodrome Forecast
Issued by NWS Paducah, KY

Home | Current Version | Previous Version | Text Only | Print | Product List | Glossary On
Versions: 1 2 3 4 5 6 7 8 9 10 11 12 13 14 15 16 17 18
000
FTUS43 KPAH 021131
TAFPAH
TAF
KPAH 021131Z 0212/0312 VRB03KT P6SM SCT050 SCT100
     FM021900 24011G18KT P6SM VCTS BKN035CB OVC100
      TEMPO 0219/0223 2SM TSRA BR OVC015CB
     FM022300 33007KT P6SM BKN025
      TEMPO 0308/0312 3SM BR=

USA.gov is the U.S. government's official web portal to all federal, state and local government web resources and services.